sensor_id;sensor_type;location;lat;lon;timestamp;temperature;humidity
9393;DHT22;4736;52.508;13.422;2023-08-24T00:01:44;18.30;68.60
9393;DHT22;4736;52.508;13.422;2023-08-24T00:04:47;18.20;68.70
9393;DHT22;4736;52.508;13.422;2023-08-24T00:07:50;18.20;68.70
9393;DHT22;4736;52.508;13.422;2023-08-24T00:10:56;18.20;68.90
9393;DHT22;4736;52.508;13.422;2023-08-24T00:13:59;18.20;69.00
9393;DHT22;4736;52.508;13.422;2023-08-24T00:17:02;18.20;69.00
9393;DHT22;4736;52.508;13.422;2023-08-24T00:20:06;18.10;69.20
9393;DHT22;4736;52.508;13.422;2023-08-24T00:23:12;18.10;69.20
9393;DHT22;4736;52.508;13.422;2023-08-24T00:26:17;18.10;69.30
9393;DHT22;4736;52.508;13.422;2023-08-24T00:29:20;18.10;69.40
9393;DHT22;4736;52.508;13.422;2023-08-24T00:32:24;18.10;69.50
9393;DHT22;4736;52.508;13.422;2023-08-24T00:35:27;18.10;69.50
9393;DHT22;4736;52.508;13.422;2023-08-24T00:38:30;18.00;69.50
9393;DHT22;4736;52.508;13.422;2023-08-24T00:41:35;18.00;69.70
9393;DHT22;4736;52.508;13.422;2023-08-24T00:44:38;18.00;69.70
9393;DHT22;4736;52.508;13.422;2023-08-24T00:47:43;18.00;69.80
9393;DHT22;4736;52.508;13.422;2023-08-24T00:50:47;18.00;70.00
9393;DHT22;4736;52.508;13.422;2023-08-24T00:53:52;18.00;70.00
9393;DHT22;4736;52.508;13.422;2023-08-24T00:56:57;18.00;70.10
9393;DHT22;4736;52.508;13.422;2023-08-24T01:00:03;18.00;70.00
9393;DHT22;4736;52.508;13.422;2023-08-24T01:03:07;18.00;70.10
9393;DHT22;4736;52.508;13.422;2023-08-24T01:06:10;18.00;70.20
9393;DHT22;4736;52.508;13.422;2023-08-24T01:09:14;17.90;70.30
9393;DHT22;4736;52.508;13.422;2023-08-24T01:12:27;17.90;70.30
9393;DHT22;4736;52.508;13.422;2023-08-24T01:15:35;17.90;70.40
9393;DHT22;4736;52.508;13.422;2023-08-24T01:18:41;18.00;70.50
9393;DHT22;4736;52.508;13.422;2023-08-24T01:21:46;18.00;70.50
9393;DHT22;4736;52.508;13.422;2023-08-24T01:24:54;18.00;70.60
9393;DHT22;4736;52.508;13.422;2023-08-24T01:28:02;18.00;70.70
9393;DHT22;4736;52.508;13.422;2023-08-24T01:31:07;18.00;70.70
9393;DHT22;4736;52.508;13.422;2023-08-24T01:34:10;18.00;70.80
9393;DHT22;4736;52.508;13.422;2023-08-24T01:37:13;18.00;70.80
9393;DHT22;4736;52.508;13.422;2023-08-24T01:40:20;18.00;70.90
9393;DHT22;4736;52.508;13.422;2023-08-24T01:43:30;18.00;70.90
9393;DHT22;4736;52.508;13.422;2023-08-24T01:46:45;18.10;70.90
9393;DHT22;4736;52.508;13.422;2023-08-24T01:49:50;18.10;70.90
9393;DHT22;4736;52.508;13.422;2023-08-24T01:52:54;18.10;70.80
9393;DHT22;4736;52.508;13.422;2023-08-24T01:55:57;18.10;70.80
9393;DHT22;4736;52.508;13.422;2023-08-24T01:59:01;18.20;70.70
9393;DHT22;4736;52.508;13.422;2023-08-24T02:02:05;18.20;70.60
9393;DHT22;4736;52.508;13.422;2023-08-24T02:05:08;18.30;70.40
9393;DHT22;4736;52.508;13.422;2023-08-24T02:08:11;18.30;70.20
9393;DHT22;4736;52.508;13.422;2023-08-24T02:11:14;18.30;70.00
9393;DHT22;4736;52.508;13.422;2023-08-24T02:14:19;18.40;69.50
9393;DHT22;4736;52.508;13.422;2023-08-24T02:17:22;18.50;69.50
9393;DHT22;4736;52.508;13.422;2023-08-24T02:20:25;18.50;69.40
9393;DHT22;4736;52.508;13.422;2023-08-24T02:23:28;18.50;69.30
9393;DHT22;4736;52.508;13.422;2023-08-24T02:26:31;18.50;69.30
9393;DHT22;4736;52.508;13.422;2023-08-24T02:29:36;18.60;69.30
9393;DHT22;4736;52.508;13.422;2023-08-24T02:32:39;18.70;69.20
9393;DHT22;4736;52.508;13.422;2023-08-24T02:35:43;18.70;69.20
9393;DHT22;4736;52.508;13.422;2023-08-24T02:38:46;18.70;69.20
9393;DHT22;4736;52.508;13.422;2023-08-24T02:41:50;18.80;69.20
9393;DHT22;4736;52.508;13.422;2023-08-24T02:44:54;18.80;69.10
9393;DHT22;4736;52.508;13.422;2023-08-24T02:47:57;18.90;69.20
9393;DHT22;4736;52.508;13.422;2023-08-24T02:51:01;18.90;69.20
9393;DHT22;4736;52.508;13.422;2023-08-24T02:54:05;18.90;69.20
9393;DHT22;4736;52.508;13.422;2023-08-24T02:57:08;18.90;69.10
9393;DHT22;4736;52.508;13.422;2023-08-24T03:00:13;19.00;69.00
9393;DHT22;4736;52.508;13.422;2023-08-24T03:03:17;18.90;68.90
9393;DHT22;4736;52.508;13.422;2023-08-24T03:06:21;19.00;68.90
9393;DHT22;4736;52.508;13.422;2023-08-24T03:09:25;19.00;69.10
9393;DHT22;4736;52.508;13.422;2023-08-24T03:12:28;18.90;69.20
9393;DHT22;4736;52.508;13.422;2023-08-24T03:15:35;18.90;69.20
9393;DHT22;4736;52.508;13.422;2023-08-24T03:18:40;18.90;69.40
9393;DHT22;4736;52.508;13.422;2023-08-24T03:21:43;18.90;69.30
9393;DHT22;4736;52.508;13.422;2023-08-24T03:24:46;19.00;69.00
9393;DHT22;4736;52.508;13.422;2023-08-24T03:27:49;19.00;68.90
9393;DHT22;4736;52.508;13.422;2023-08-24T03:30:55;18.90;68.70
9393;DHT22;4736;52.508;13.422;2023-08-24T03:33:58;18.90;68.70
9393;DHT22;4736;52.508;13.422;2023-08-24T03:37:01;18.90;68.50
9393;DHT22;4736;52.508;13.422;2023-08-24T03:40:05;18.80;68.50
9393;DHT22;4736;52.508;13.422;2023-08-24T03:43:09;18.80;68.30
9393;DHT22;4736;52.508;13.422;2023-08-24T03:46:13;18.80;68.20
9393;DHT22;4736;52.508;13.422;2023-08-24T03:49:16;18.80;68.00
9393;DHT22;4736;52.508;13.422;2023-08-24T03:52:19;18.80;67.80
9393;DHT22;4736;52.508;13.422;2023-08-24T03:55:23;18.80;67.50
9393;DHT22;4736;52.508;13.422;2023-08-24T03:58:26;18.80;67.30
9393;DHT22;4736;52.508;13.422;2023-08-24T04:01:31;18.80;67.50
9393;DHT22;4736;52.508;13.422;2023-08-24T04:04:34;18.80;67.50
9393;DHT22;4736;52.508;13.422;2023-08-24T04:07:37;18.90;67.40
9393;DHT22;4736;52.508;13.422;2023-08-24T04:10:41;18.90;67.30
9393;DHT22;4736;52.508;13.422;2023-08-24T04:13:44;18.90;67.30
9393;DHT22;4736;52.508;13.422;2023-08-24T04:16:49;18.90;67.20
9393;DHT22;4736;52.508;13.422;2023-08-24T04:19:52;18.90;67.20
9393;DHT22;4736;52.508;13.422;2023-08-24T04:22:55;18.90;67.20
9393;DHT22;4736;52.508;13.422;2023-08-24T04:25:58;18.90;67.10
9393;DHT22;4736;52.508;13.422;2023-08-24T04:29:02;18.90;66.80
9393;DHT22;4736;52.508;13.422;2023-08-24T04:32:06;18.90;66.80
9393;DHT22;4736;52.508;13.422;2023-08-24T04:35:09;19.00;66.80
9393;DHT22;4736;52.508;13.422;2023-08-24T04:38:13;19.00;66.70
9393;DHT22;4736;52.508;13.422;2023-08-24T04:41:16;19.00;66.70
9393;DHT22;4736;52.508;13.422;2023-08-24T04:44:19;19.00;66.70
9393;DHT22;4736;52.508;13.422;2023-08-24T04:47:23;19.00;66.80
9393;DHT22;4736;52.508;13.422;2023-08-24T04:50:26;19.00;66.60
9393;DHT22;4736;52.508;13.422;2023-08-24T04:53:29;19.00;66.30
9393;DHT22;4736;52.508;13.422;2023-08-24T04:56:32;19.00;66.40
9393;DHT22;4736;52.508;13.422;2023-08-24T04:59:36;19.00;66.50
9393;DHT22;4736;52.508;13.422;2023-08-24T05:02:40;19.00;66.40
9393;DHT22;4736;52.508;13.422;2023-08-24T05:05:45;19.00;66.60
9393;DHT22;4736;52.508;13.422;2023-08-24T05:08:48;19.00;66.60
9393;DHT22;4736;52.508;13.422;2023-08-24T05:11:51;19.00;66.50
9393;DHT22;4736;52.508;13.422;2023-08-24T05:14:54;19.10;66.60
9393;DHT22;4736;52.508;13.422;2023-08-24T05:17:58;19.10;66.90
9393;DHT22;4736;52.508;13.422;2023-08-24T05:21:01;19.20;66.90
9393;DHT22;4736;52.508;13.422;2023-08-24T05:24:05;19.20;66.50
9393;DHT22;4736;52.508;13.422;2023-08-24T05:27:08;19.20;66.40
9393;DHT22;4736;52.508;13.422;2023-08-24T05:30:12;19.30;66.60
9393;DHT22;4736;52.508;13.422;2023-08-24T05:33:16;19.30;66.40
9393;DHT22;4736;52.508;13.422;2023-08-24T05:36:19;19.40;66.40
9393;DHT22;4736;52.508;13.422;2023-08-24T05:39:22;19.50;66.20
9393;DHT22;4736;52.508;13.422;2023-08-24T05:42:26;19.60;66.40
9393;DHT22;4736;52.508;13.422;2023-08-24T05:45:29;19.70;66.20
9393;DHT22;4736;52.508;13.422;2023-08-24T05:48:33;19.70;65.60
9393;DHT22;4736;52.508;13.422;2023-08-24T05:51:36;19.70;65.50
9393;DHT22;4736;52.508;13.422;2023-08-24T05:54:39;19.70;65.60
9393;DHT22;4736;52.508;13.422;2023-08-24T05:57:42;19.90;65.60
9393;DHT22;4736;52.508;13.422;2023-08-24T06:00:45;20.00;65.40
9393;DHT22;4736;52.508;13.422;2023-08-24T06:03:50;20.00;65.50
9393;DHT22;4736;52.508;13.422;2023-08-24T06:06:56;20.30;65.40
9393;DHT22;4736;52.508;13.422;2023-08-24T06:10:00;20.50;64.70
9393;DHT22;4736;52.508;13.422;2023-08-24T06:13:03;20.70;64.50
9393;DHT22;4736;52.508;13.422;2023-08-24T06:16:06;20.90;63.60
9393;DHT22;4736;52.508;13.422;2023-08-24T06:19:11;21.10;63.30
9393;DHT22;4736;52.508;13.422;2023-08-24T06:22:14;21.30;63.00
9393;DHT22;4736;52.508;13.422;2023-08-24T06:25:17;21.40;62.10
9393;DHT22;4736;52.508;13.422;2023-08-24T06:28:21;21.50;61.60
9393;DHT22;4736;52.508;13.422;2023-08-24T06:31:24;21.50;62.00
9393;DHT22;4736;52.508;13.422;2023-08-24T06:34:28;22.10;60.50
9393;DHT22;4736;52.508;13.422;2023-08-24T06:37:31;22.30;59.90
9393;DHT22;4736;52.508;13.422;2023-08-24T06:40:34;22.10;60.20
9393;DHT22;4736;52.508;13.422;2023-08-24T06:43:38;22.30;60.00
9393;DHT22;4736;52.508;13.422;2023-08-24T06:46:41;22.20;60.30
9393;DHT22;4736;52.508;13.422;2023-08-24T06:49:46;22.20;60.20
9393;DHT22;4736;52.508;13.422;2023-08-24T06:52:49;22.20;60.20
9393;DHT22;4736;52.508;13.422;2023-08-24T06:55:54;22.20;60.30
9393;DHT22;4736;52.508;13.422;2023-08-24T06:58:58;22.10;60.10
9393;DHT22;4736;52.508;13.422;2023-08-24T07:02:01;22.20;59.90
9393;DHT22;4736;52.508;13.422;2023-08-24T07:05:07;22.10;59.70
9393;DHT22;4736;52.508;13.422;2023-08-24T07:08:11;22.10;60.00
9393;DHT22;4736;52.508;13.422;2023-08-24T07:11:14;22.20;60.00
9393;DHT22;4736;52.508;13.422;2023-08-24T07:14:17;22.20;59.80
9393;DHT22;4736;52.508;13.422;2023-08-24T07:17:20;22.20;60.00
9393;DHT22;4736;52.508;13.422;2023-08-24T07:20:24;22.30;59.70
9393;DHT22;4736;52.508;13.422;2023-08-24T07:23:27;22.50;59.90
9393;DHT22;4736;52.508;13.422;2023-08-24T07:26:31;22.60;59.90
9393;DHT22;4736;52.508;13.422;2023-08-24T07:29:34;22.80;59.30
9393;DHT22;4736;52.508;13.422;2023-08-24T07:32:38;22.90;58.60
9393;DHT22;4736;52.508;13.422;2023-08-24T07:35:42;23.00;58.10
9393;DHT22;4736;52.508;13.422;2023-08-24T07:38:45;23.00;58.00
9393;DHT22;4736;52.508;13.422;2023-08-24T07:41:49;23.00;57.80
9393;DHT22;4736;52.508;13.422;2023-08-24T07:44:52;23.00;58.10
9393;DHT22;4736;52.508;13.422;2023-08-24T07:47:55;22.80;57.40
9393;DHT22;4736;52.508;13.422;2023-08-24T07:51:01;23.00;58.20
9393;DHT22;4736;52.508;13.422;2023-08-24T07:54:04;23.00;57.50
9393;DHT22;4736;52.508;13.422;2023-08-24T07:57:09;23.00;57.80
9393;DHT22;4736;52.508;13.422;2023-08-24T08:00:13;23.20;58.20
9393;DHT22;4736;52.508;13.422;2023-08-24T08:03:17;23.40;57.30
9393;DHT22;4736;52.508;13.422;2023-08-24T08:06:23;23.50;57.00
9393;DHT22;4736;52.508;13.422;2023-08-24T08:09:26;23.60;57.60
9393;DHT22;4736;52.508;13.422;2023-08-24T08:12:29;23.90;56.20
9393;DHT22;4736;52.508;13.422;2023-08-24T08:15:34;23.90;56.30
9393;DHT22;4736;52.508;13.422;2023-08-24T08:18:38;24.00;55.60
9393;DHT22;4736;52.508;13.422;2023-08-24T08:21:43;24.00;55.20
9393;DHT22;4736;52.508;13.422;2023-08-24T08:24:46;24.00;55.20
9393;DHT22;4736;52.508;13.422;2023-08-24T08:27:49;24.00;55.20
9393;DHT22;4736;52.508;13.422;2023-08-24T08:30:53;24.20;55.10
9393;DHT22;4736;52.508;13.422;2023-08-24T08:33:56;24.40;54.50
9393;DHT22;4736;52.508;13.422;2023-08-24T08:37:01;24.50;55.40
9393;DHT22;4736;52.508;13.422;2023-08-24T08:40:05;24.60;55.70
9393;DHT22;4736;52.508;13.422;2023-08-24T08:43:08;24.40;54.00
9393;DHT22;4736;52.508;13.422;2023-08-24T08:46:12;24.20;55.20
9393;DHT22;4736;52.508;13.422;2023-08-24T08:49:17;24.00;54.50
9393;DHT22;4736;52.508;13.422;2023-08-24T08:52:23;23.90;54.60
9393;DHT22;4736;52.508;13.422;2023-08-24T08:55:29;23.90;55.10
9393;DHT22;4736;52.508;13.422;2023-08-24T08:58:34;23.90;55.30
9393;DHT22;4736;52.508;13.422;2023-08-24T09:01:38;24.00;55.60
9393;DHT22;4736;52.508;13.422;2023-08-24T09:04:42;24.00;55.40
9393;DHT22;4736;52.508;13.422;2023-08-24T09:07:49;24.10;56.10
9393;DHT22;4736;52.508;13.422;2023-08-24T09:10:54;24.00;55.10
9393;DHT22;4736;52.508;13.422;2023-08-24T09:13:57;24.00;55.30
9393;DHT22;4736;52.508;13.422;2023-08-24T09:17:00;24.00;55.50
9393;DHT22;4736;52.508;13.422;2023-08-24T09:20:07;24.10;55.30
9393;DHT22;4736;52.508;13.422;2023-08-24T09:23:19;24.20;56.00
9393;DHT22;4736;52.508;13.422;2023-08-24T09:26:28;24.20;54.60
9393;DHT22;4736;52.508;13.422;2023-08-24T09:29:36;24.10;54.80
9393;DHT22;4736;52.508;13.422;2023-08-24T09:32:39;24.20;55.00
9393;DHT22;4736;52.508;13.422;2023-08-24T09:35:43;24.20;55.20
9393;DHT22;4736;52.508;13.422;2023-08-24T09:38:48;24.40;55.80
9393;DHT22;4736;52.508;13.422;2023-08-24T09:41:53;24.60;55.80
9393;DHT22;4736;52.508;13.422;2023-08-24T09:45:02;24.60;55.40
9393;DHT22;4736;52.508;13.422;2023-08-24T09:48:08;24.70;54.50
9393;DHT22;4736;52.508;13.422;2023-08-24T09:51:12;24.70;53.40
9393;DHT22;4736;52.508;13.422;2023-08-24T09:54:21;24.80;54.00
9393;DHT22;4736;52.508;13.422;2023-08-24T09:57:26;24.90;53.30
9393;DHT22;4736;52.508;13.422;2023-08-24T10:00:29;24.70;53.60
9393;DHT22;4736;52.508;13.422;2023-08-24T10:03:35;25.00;54.40
9393;DHT22;4736;52.508;13.422;2023-08-24T10:06:43;25.20;51.60
9393;DHT22;4736;52.508;13.422;2023-08-24T10:09:58;25.30;52.10
9393;DHT22;4736;52.508;13.422;2023-08-24T10:13:10;25.50;52.60
9393;DHT22;4736;52.508;13.422;2023-08-24T10:16:16;25.60;52.10
9393;DHT22;4736;52.508;13.422;2023-08-24T10:19:21;25.30;51.40
9393;DHT22;4736;52.508;13.422;2023-08-24T10:22:25;25.50;51.00
9393;DHT22;4736;52.508;13.422;2023-08-24T10:25:30;25.70;51.50
9393;DHT22;4736;52.508;13.422;2023-08-24T10:28:33;25.60;51.80
9393;DHT22;4736;52.508;13.422;2023-08-24T10:31:37;25.50;51.90
9393;DHT22;4736;52.508;13.422;2023-08-24T10:34:41;25.40;51.90
9393;DHT22;4736;52.508;13.422;2023-08-24T10:37:44;25.60;52.40
9393;DHT22;4736;52.508;13.422;2023-08-24T10:40:51;25.80;52.40
9393;DHT22;4736;52.508;13.422;2023-08-24T10:44:04;25.80;51.60
9393;DHT22;4736;52.508;13.422;2023-08-24T10:47:15;26.00;52.00
9393;DHT22;4736;52.508;13.422;2023-08-24T10:50:18;25.80;51.50
9393;DHT22;4736;52.508;13.422;2023-08-24T10:53:39;26.00;51.00
9393;DHT22;4736;52.508;13.422;2023-08-24T10:56:53;25.90;51.50
9393;DHT22;4736;52.508;13.422;2023-08-24T10:59:59;26.00;51.80
9393;DHT22;4736;52.508;13.422;2023-08-24T11:03:03;26.10;52.00
9393;DHT22;4736;52.508;13.422;2023-08-24T11:06:18;26.20;51.90
9393;DHT22;4736;52.508;13.422;2023-08-24T11:09:23;26.40;51.10
9393;DHT22;4736;52.508;13.422;2023-08-24T11:12:27;26.40;50.90
9393;DHT22;4736;52.508;13.422;2023-08-24T11:15:32;26.60;51.20
9393;DHT22;4736;52.508;13.422;2023-08-24T11:18:39;26.90;50.80
9393;DHT22;4736;52.508;13.422;2023-08-24T11:21:44;27.00;50.50
9393;DHT22;4736;52.508;13.422;2023-08-24T11:24:47;27.00;50.90
9393;DHT22;4736;52.508;13.422;2023-08-24T11:27:52;27.10;50.40
9393;DHT22;4736;52.508;13.422;2023-08-24T11:30:56;27.10;51.40
9393;DHT22;4736;52.508;13.422;2023-08-24T11:33:59;27.00;51.00
9393;DHT22;4736;52.508;13.422;2023-08-24T11:37:03;27.00;51.40
9393;DHT22;4736;52.508;13.422;2023-08-24T11:40:16;27.10;50.70
9393;DHT22;4736;52.508;13.422;2023-08-24T11:43:27;27.20;50.00
9393;DHT22;4736;52.508;13.422;2023-08-24T11:46:31;27.20;50.70
9393;DHT22;4736;52.508;13.422;2023-08-24T11:49:34;27.20;50.20
9393;DHT22;4736;52.508;13.422;2023-08-24T11:52:39;27.20;50.70
9393;DHT22;4736;52.508;13.422;2023-08-24T11:55:42;27.50;50.20
9393;DHT22;4736;52.508;13.422;2023-08-24T11:59:11;27.40;49.70
9393;DHT22;4736;52.508;13.422;2023-08-24T12:02:14;27.30;49.60
9393;DHT22;4736;52.508;13.422;2023-08-24T12:05:23;27.50;49.60
9393;DHT22;4736;52.508;13.422;2023-08-24T12:08:26;27.40;49.10
9393;DHT22;4736;52.508;13.422;2023-08-24T12:11:35;27.40;49.40
9393;DHT22;4736;52.508;13.422;2023-08-24T12:14:43;27.30;49.70
9393;DHT22;4736;52.508;13.422;2023-08-24T12:17:47;27.20;49.90
9393;DHT22;4736;52.508;13.422;2023-08-24T12:20:50;27.30;50.00
9393;DHT22;4736;52.508;13.422;2023-08-24T12:23:58;27.30;50.30
9393;DHT22;4736;52.508;13.422;2023-08-24T12:27:01;27.50;50.70
9393;DHT22;4736;52.508;13.422;2023-08-24T12:30:07;27.70;49.80
9393;DHT22;4736;52.508;13.422;2023-08-24T12:33:23;27.90;49.90
9393;DHT22;4736;52.508;13.422;2023-08-24T12:36:26;27.70;49.60
9393;DHT22;4736;52.508;13.422;2023-08-24T12:39:35;27.50;49.80
9393;DHT22;4736;52.508;13.422;2023-08-24T12:42:38;27.40;50.10
9393;DHT22;4736;52.508;13.422;2023-08-24T12:45:44;27.50;50.30
9393;DHT22;4736;52.508;13.422;2023-08-24T12:48:47;27.70;49.90
9393;DHT22;4736;52.508;13.422;2023-08-24T12:51:50;27.50;49.40
9393;DHT22;4736;52.508;13.422;2023-08-24T12:54:53;27.70;50.50
9393;DHT22;4736;52.508;13.422;2023-08-24T12:57:56;27.70;49.30
9393;DHT22;4736;52.508;13.422;2023-08-24T13:01:01;27.80;49.60
9393;DHT22;4736;52.508;13.422;2023-08-24T13:04:04;27.80;50.20
9393;DHT22;4736;52.508;13.422;2023-08-24T13:07:08;27.80;50.60
9393;DHT22;4736;52.508;13.422;2023-08-24T13:10:12;28.00;50.20
9393;DHT22;4736;52.508;13.422;2023-08-24T13:13:16;28.10;49.70
9393;DHT22;4736;52.508;13.422;2023-08-24T13:16:20;28.30;49.50
9393;DHT22;4736;52.508;13.422;2023-08-24T13:19:23;28.10;49.50
9393;DHT22;4736;52.508;13.422;2023-08-24T13:22:26;28.10;49.30
9393;DHT22;4736;52.508;13.422;2023-08-24T13:25:30;28.10;48.90
9393;DHT22;4736;52.508;13.422;2023-08-24T13:28:33;28.10;49.50
9393;DHT22;4736;52.508;13.422;2023-08-24T13:31:38;27.80;50.00
9393;DHT22;4736;52.508;13.422;2023-08-24T13:34:41;27.90;49.40
9393;DHT22;4736;52.508;13.422;2023-08-24T13:37:44;28.00;48.90
9393;DHT22;4736;52.508;13.422;2023-08-24T13:40:47;27.80;49.50
9393;DHT22;4736;52.508;13.422;2023-08-24T13:43:52;27.90;49.70
9393;DHT22;4736;52.508;13.422;2023-08-24T13:46:56;28.10;49.40
9393;DHT22;4736;52.508;13.422;2023-08-24T13:49:59;28.30;49.40
9393;DHT22;4736;52.508;13.422;2023-08-24T13:53:02;28.50;48.40
9393;DHT22;4736;52.508;13.422;2023-08-24T13:56:06;28.60;48.80
9393;DHT22;4736;52.508;13.422;2023-08-24T13:59:09;28.50;49.30
9393;DHT22;4736;52.508;13.422;2023-08-24T14:02:13;28.50;49.20
9393;DHT22;4736;52.508;13.422;2023-08-24T14:05:16;28.50;48.80
9393;DHT22;4736;52.508;13.422;2023-08-24T14:08:19;28.50;49.40
9393;DHT22;4736;52.508;13.422;2023-08-24T14:11:24;28.60;49.40
9393;DHT22;4736;52.508;13.422;2023-08-24T14:14:27;28.30;48.80
9393;DHT22;4736;52.508;13.422;2023-08-24T14:17:31;28.40;49.40
9393;DHT22;4736;52.508;13.422;2023-08-24T14:20:35;28.30;48.70
9393;DHT22;4736;52.508;13.422;2023-08-24T14:23:38;28.30;48.90
9393;DHT22;4736;52.508;13.422;2023-08-24T14:26:41;28.50;49.50
9393;DHT22;4736;52.508;13.422;2023-08-24T14:29:47;28.50;49.50
9393;DHT22;4736;52.508;13.422;2023-08-24T14:32:52;28.70;49.60
9393;DHT22;4736;52.508;13.422;2023-08-24T14:35:55;29.00;48.60
9393;DHT22;4736;52.508;13.422;2023-08-24T14:38:58;29.00;48.30
9393;DHT22;4736;52.508;13.422;2023-08-24T14:42:01;29.00;48.90
9393;DHT22;4736;52.508;13.422;2023-08-24T14:45:07;28.70;49.00
9393;DHT22;4736;52.508;13.422;2023-08-24T14:48:11;28.70;48.20
9393;DHT22;4736;52.508;13.422;2023-08-24T14:51:15;28.50;48.30
9393;DHT22;4736;52.508;13.422;2023-08-24T14:54:18;28.80;48.60
9393;DHT22;4736;52.508;13.422;2023-08-24T14:57:21;28.70;47.90
9393;DHT22;4736;52.508;13.422;2023-08-24T15:00:24;28.30;48.30
9393;DHT22;4736;52.508;13.422;2023-08-24T15:03:29;28.50;48.70
9393;DHT22;4736;52.508;13.422;2023-08-24T15:06:32;28.60;48.50
9393;DHT22;4736;52.508;13.422;2023-08-24T15:09:35;28.90;48.90
9393;DHT22;4736;52.508;13.422;2023-08-24T15:12:38;28.60;49.00
9393;DHT22;4736;52.508;13.422;2023-08-24T15:15:42;28.70;48.70
9393;DHT22;4736;52.508;13.422;2023-08-24T15:18:46;28.70;49.10
9393;DHT22;4736;52.508;13.422;2023-08-24T15:21:49;28.50;48.20
9393;DHT22;4736;52.508;13.422;2023-08-24T15:24:52;28.30;49.70
9393;DHT22;4736;52.508;13.422;2023-08-24T15:27:57;28.30;49.50
9393;DHT22;4736;52.508;13.422;2023-08-24T15:31:01;28.40;49.00
9393;DHT22;4736;52.508;13.422;2023-08-24T15:34:05;28.50;49.50
9393;DHT22;4736;52.508;13.422;2023-08-24T15:37:08;28.40;49.10
9393;DHT22;4736;52.508;13.422;2023-08-24T15:40:11;28.30;48.50
9393;DHT22;4736;52.508;13.422;2023-08-24T15:43:17;28.30;48.80
9393;DHT22;4736;52.508;13.422;2023-08-24T15:46:21;28.00;49.10
9393;DHT22;4736;52.508;13.422;2023-08-24T15:49:25;27.90;49.20
9393;DHT22;4736;52.508;13.422;2023-08-24T15:52:30;28.00;49.30
9393;DHT22;4736;52.508;13.422;2023-08-24T15:55:33;28.00;49.60
9393;DHT22;4736;52.508;13.422;2023-08-24T15:58:37;27.60;49.80
9393;DHT22;4736;52.508;13.422;2023-08-24T16:01:40;27.50;50.30
9393;DHT22;4736;52.508;13.422;2023-08-24T16:04:45;27.50;49.80
9393;DHT22;4736;52.508;13.422;2023-08-24T16:07:50;27.50;49.90
9393;DHT22;4736;52.508;13.422;2023-08-24T16:10:55;27.50;49.80
9393;DHT22;4736;52.508;13.422;2023-08-24T16:14:00;27.50;49.70
9393;DHT22;4736;52.508;13.422;2023-08-24T16:17:04;27.30;50.00
9393;DHT22;4736;52.508;13.422;2023-08-24T16:20:10;27.20;50.50
9393;DHT22;4736;52.508;13.422;2023-08-24T16:23:13;27.30;50.80
9393;DHT22;4736;52.508;13.422;2023-08-24T16:26:16;27.30;50.60
9393;DHT22;4736;52.508;13.422;2023-08-24T16:29:20;27.20;49.50
9393;DHT22;4736;52.508;13.422;2023-08-24T16:32:24;27.30;50.20
9393;DHT22;4736;52.508;13.422;2023-08-24T16:35:28;27.20;50.20
9393;DHT22;4736;52.508;13.422;2023-08-24T16:38:31;27.10;50.60
9393;DHT22;4736;52.508;13.422;2023-08-24T16:41:35;27.10;50.90
9393;DHT22;4736;52.508;13.422;2023-08-24T16:44:38;27.00;51.70
9393;DHT22;4736;52.508;13.422;2023-08-24T16:47:41;26.60;51.60
9393;DHT22;4736;52.508;13.422;2023-08-24T16:50:49;26.50;51.70
9393;DHT22;4736;52.508;13.422;2023-08-24T16:53:53;26.50;51.60
9393;DHT22;4736;52.508;13.422;2023-08-24T16:56:56;26.50;51.60
9393;DHT22;4736;52.508;13.422;2023-08-24T16:59:59;26.50;51.70
9393;DHT22;4736;52.508;13.422;2023-08-24T17:03:02;26.40;52.10
9393;DHT22;4736;52.508;13.422;2023-08-24T17:06:07;26.40;52.00
9393;DHT22;4736;52.508;13.422;2023-08-24T17:09:10;26.40;52.00
9393;DHT22;4736;52.508;13.422;2023-08-24T17:12:14;26.40;52.00
9393;DHT22;4736;52.508;13.422;2023-08-24T17:15:17;26.20;51.60
9393;DHT22;4736;52.508;13.422;2023-08-24T17:18:20;26.20;51.80
9393;DHT22;4736;52.508;13.422;2023-08-24T17:21:24;26.10;52.00
9393;DHT22;4736;52.508;13.422;2023-08-24T17:24:28;26.10;52.00
9393;DHT22;4736;52.508;13.422;2023-08-24T17:27:31;26.00;52.30
9393;DHT22;4736;52.508;13.422;2023-08-24T17:30:34;26.00;52.80
9393;DHT22;4736;52.508;13.422;2023-08-24T17:33:37;25.80;52.70
9393;DHT22;4736;52.508;13.422;2023-08-24T17:36:42;25.80;52.60
9393;DHT22;4736;52.508;13.422;2023-08-24T17:39:45;25.70;52.90
9393;DHT22;4736;52.508;13.422;2023-08-24T17:42:48;25.60;52.90
9393;DHT22;4736;52.508;13.422;2023-08-24T17:45:51;25.50;52.90
9393;DHT22;4736;52.508;13.422;2023-08-24T17:48:54;25.40;53.00
9393;DHT22;4736;52.508;13.422;2023-08-24T17:51:59;25.30;53.10
9393;DHT22;4736;52.508;13.422;2023-08-24T17:55:03;25.20;53.30
9393;DHT22;4736;52.508;13.422;2023-08-24T17:58:07;25.10;53.70
9393;DHT22;4736;52.508;13.422;2023-08-24T18:01:10;25.00;54.10
9393;DHT22;4736;52.508;13.422;2023-08-24T18:04:13;24.90;54.50
9393;DHT22;4736;52.508;13.422;2023-08-24T18:07:18;24.80;54.70
9393;DHT22;4736;52.508;13.422;2023-08-24T18:10:21;24.60;55.00
9393;DHT22;4736;52.508;13.422;2023-08-24T18:13:24;24.50;55.30
9393;DHT22;4736;52.508;13.422;2023-08-24T18:16:27;24.40;55.50
9393;DHT22;4736;52.508;13.422;2023-08-24T18:19:31;24.40;55.70
9393;DHT22;4736;52.508;13.422;2023-08-24T18:22:35;24.30;55.80
9393;DHT22;4736;52.508;13.422;2023-08-24T18:25:39;24.20;56.00
9393;DHT22;4736;52.508;13.422;2023-08-24T18:28:42;24.10;56.10
9393;DHT22;4736;52.508;13.422;2023-08-24T18:31:46;24.00;56.10
9393;DHT22;4736;52.508;13.422;2023-08-24T18:34:49;24.00;56.20
9393;DHT22;4736;52.508;13.422;2023-08-24T18:37:53;23.90;56.50
9393;DHT22;4736;52.508;13.422;2023-08-24T18:40:57;23.80;56.60
9393;DHT22;4736;52.508;13.422;2023-08-24T18:44:01;23.80;56.70
9393;DHT22;4736;52.508;13.422;2023-08-24T18:47:05;23.70;56.80
9393;DHT22;4736;52.508;13.422;2023-08-24T18:50:09;23.60;57.00
9393;DHT22;4736;52.508;13.422;2023-08-24T18:53:13;23.60;57.30
9393;DHT22;4736;52.508;13.422;2023-08-24T18:56:16;23.50;57.40
9393;DHT22;4736;52.508;13.422;2023-08-24T18:59:20;23.50;57.50
9393;DHT22;4736;52.508;13.422;2023-08-24T19:02:23;23.40;57.60
9393;DHT22;4736;52.508;13.422;2023-08-24T19:05:27;23.30;57.80
9393;DHT22;4736;52.508;13.422;2023-08-24T19:08:31;23.30;57.80
9393;DHT22;4736;52.508;13.422;2023-08-24T19:11:35;23.30;57.90
9393;DHT22;4736;52.508;13.422;2023-08-24T19:14:38;23.30;58.00
9393;DHT22;4736;52.508;13.422;2023-08-24T19:17:41;23.30;58.20
9393;DHT22;4736;52.508;13.422;2023-08-24T19:20:44;23.20;58.30
9393;DHT22;4736;52.508;13.422;2023-08-24T19:23:49;23.10;58.70
9393;DHT22;4736;52.508;13.422;2023-08-24T19:26:52;23.10;58.90
9393;DHT22;4736;52.508;13.422;2023-08-24T19:29:55;23.10;59.00
9393;DHT22;4736;52.508;13.422;2023-08-24T19:33:00;23.20;59.00
9393;DHT22;4736;52.508;13.422;2023-08-24T19:36:03;23.20;59.10
9393;DHT22;4736;52.508;13.422;2023-08-24T19:39:08;23.20;59.10
9393;DHT22;4736;52.508;13.422;2023-08-24T19:42:11;23.20;59.00